EDT,Max TemperatureF,Mean TemperatureF,Min TemperatureF,Max Dew PointF,MeanDew PointF,Min DewpointF,Max Humidity, Mean Humidity, Min Humidity, Max Sea Level PressureIn, Mean Sea Level PressureIn, Min Sea Level PressureIn, Max VisibilityMiles, Mean VisibilityMiles, Min VisibilityMiles, Max Wind SpeedMPH, Mean Wind SpeedMPH, Max Gust SpeedMPH,PrecipitationIn, CloudCover, Events, WindDirDegrees
2014-4-1,47,31,15,29,22,15,100,75,49,30.19,30.08,29.90,10,10,10,14,6,16,0.00,0,,56
2014-4-2,42,33,24,29,25,22,88,67,46,30.10,30.00,29.91,10,10,8,21,10,28,0.00,2,,237
2014-4-3,39,30,20,23,20,17,92,68,44,30.17,30.13,30.07,10,10,10,12,5,17,0.00,3,,289
2014-4-4,47,34,21,35,26,15,85,64,42,30.13,29.84,29.60,10,9,4,23,9,34,0.23,5,Rain,125
2014-4-5,38,33,27,34,27,19,100,83,66,29.99,29.72,29.57,10,8,2,28,13,37,0.03,8,Snow,235
2014-4-6,44,34,23,21,19,17,81,59,36,30.20,30.11,30.01,10,9,3,17,7,23,T,3,Snow,249
2014-4-7,52,35,18,33,21,13,92,59,25,30.18,30.04,29.70,10,10,6,23,6,28,0.11,2,Rain,156
2014-4-8,48,41,33,43,36,32,100,91,82,29.62,29.38,29.22,10,7,2,22,10,32,0.30,8,Rain-Snow-Thunderstorm,226
2014-4-9,36,29,21,34,23,6,100,65,29,29.94,29.72,29.55,10,10,9,17,7,29,T,5,,278
2014-4-10,57,38,19,33,25,17,91,65,38,30.00,29.87,29.73,10,10,10,32,15,43,0.02,1,,216
2014-4-11,53,40,26,44,33,15,100,63,26,30.04,29.92,29.78,10,8,1,18,6,26,0.11,3,Rain,240
2014-4-12,54,39,24,32,26,21,92,62,32,30.22,30.13,30.04,10,10,10,16,5,24,0.00,4,,247
2014-4-13,69,52,35,49,42,31,100,73,45,30.18,29.98,29.83,10,7,1,20,6,27,0.38,6,Rain,204
2014-4-14,77,56,35,54,46,34,100,68,36,29.88,29.76,29.59,10,5,0,32,12,41,0.33,5,Fog-Rain-Thunderstorm,214
2014-4-15,60,39,17,54,35,13,100,90,80,29.93,29.62,29.42,10,4,0,26,11,34,0.66,8,Fog-Rain-Snow,254
2014-4-16,28,20,12,14,11,6,96,71,46,30.63,30.19,29.88,10,6,1,14,6,22,T,5,Snow,286
2014-4-17,47,29,10,18,12,7,92,56,19,30.71,30.63,30.55,10,10,10,17,4,21,0.00,0,,165
2014-4-18,53,37,20,36,21,16,100,63,26,30.52,30.34,30.17,10,10,8,20,5,23,T,2,Rain,228
2014-4-19,44,32,20,37,30,19,100,70,39,30.47,30.28,30.11,10,8,1,13,5,21,0.01,6,,284
2014-4-20,60,38,16,25,16,9,92,53,14,30.49,30.38,30.21,10,10,10,14,4,20,0.00,0,,268
2014-4-21,68,52,36,39,29,21,66,44,22,30.17,29.96,29.78,10,10,10,18,7,23,T,6,,236
2014-4-22,59,51,42,51,45,34,100,72,43,29.73,29.50,29.43,10,8,2,18,6,24,0.16,8,Rain,233
2014-4-23,44,39,33,43,34,18,100,74,47,29.82,29.62,29.47,10,8,3,13,7,22,0.03,8,Rain,289
2014-4-24,46,34,21,20,15,12,74,51,28,30.05,29.95,29.83,10,10,10,16,7,24,0.00,0,,312
2014-4-25,58,37,16,23,17,12,92,55,17,30.05,29.92,29.72,10,10,10,15,4,19,0.02,2,,68
2014-4-26,41,38,35,39,36,32,100,93,85,29.86,29.71,29.62,10,6,2,15,6,19,0.25,8,Rain,245
2014-4-27,35,35,35,35,34,34,100,96,93,30.12,29.98,29.82,6,6,6,4,4,,0.00,8,,-1
2014-4-28,53,47,41,36,33,27,79,59,39,30.16,30.10,30.06,10,10,10,16,12,21,0.00,5,,66
2014-4-29,56,45,33,38,34,25,100,68,35,30.34,30.24,30.15,10,8,3,21,9,30,0.43,4,Rain,99
2014-4-30,49,44,38,43,40,35,92,82,71,30.33,30.11,29.91,10,6,1,18,9,26,0.99,8,Rain,144